Time;durP1;ratioP1;P1;durP2;ratioP2;P2;SDS_P1;SDS_P2;PMS_P1;PMS_P2;Temp;Humidity;BMP_temperature;BMP_pressure;BME280_temperature;BME280_humidity;BME280_pressure;Samples;Min_cycle;Max_cycle;Signal;HPM_P1;HPM_P2
2023/04/30 00:00:00;;;;;;;5.95;4.60;;;9.90;33.90;;;;;;5058239;28;20037;-69
2023/04/30 00:02:26;;;;;;;6.45;4.65;;;9.90;35.00;;;;;;5058399;28;20439;-69
2023/04/30 00:04:51;;;;;;;7.28;4.72;;;9.80;35.70;;;;;;5058944;28;20160;-69
2023/04/30 00:07:17;;;;;;;6.18;4.55;;;9.80;36.30;;;;;;5041512;28;20028;-69
2023/04/30 00:09:43;;;;;;;6.43;4.50;;;9.70;37.20;;;;;;5008442;28;20045;-69
2023/04/30 00:12:09;;;;;;;4.88;4.20;;;9.70;41.70;;;;;;5058097;28;20392;-68
2023/04/30 00:14:35;;;;;;;7.20;4.35;;;9.60;46.10;;;;;;5057937;28;20100;-68
2023/04/30 00:17:01;;;;;;;5.57;4.55;;;9.50;47.90;;;;;;5057910;28;20032;-68
2023/04/30 00:19:26;;;;;;;6.00;4.80;;;9.60;47.80;;;;;;5057767;28;20098;-69
2023/04/30 00:21:52;;;;;;;5.40;4.75;;;9.50;49.80;;;;;;5057934;28;20106;-68
2023/04/30 00:24:18;;;;;;;5.88;5.10;;;9.50;50.60;;;;;;5058583;28;20041;-69
2023/04/30 00:26:44;;;;;;;5.07;4.13;;;9.50;51.70;;;;;;5057866;28;20055;-69
2023/04/30 00:29:10;;;;;;;6.00;4.47;;;9.40;55.10;;;;;;5057936;28;20040;-69
2023/04/30 00:31:36;;;;;;;8.15;4.90;;;9.40;58.30;;;;;;5041228;28;20114;-69
2023/04/30 00:34:02;;;;;;;5.72;4.47;;;9.30;57.70;;;;;;5041045;28;20400;-69
2023/04/30 00:36:27;;;;;;;5.63;4.93;;;9.20;59.80;;;;;;5040983;28;20033;-70
2023/04/30 00:38:53;;;;;;;7.80;5.35;;;9.20;60.50;;;;;;5057582;28;20045;-69
2023/04/30 00:41:21;;;;;;;8.60;4.88;;;9.10;63.20;;;;;;5057448;28;20033;-69
2023/04/30 00:43:47;;;;;;;5.60;5.10;;;9.20;61.80;;;;;;5058135;28;20028;-68
2023/04/30 00:46:13;;;;;;;5.65;5.10;;;9.30;61.20;;;;;;5057642;28;20029;-69
2023/04/30 00:48:39;;;;;;;5.30;4.80;;;9.20;60.10;;;;;;5057215;28;20403;-69
2023/04/30 00:51:06;;;;;;;6.55;5.55;;;9.10;59.40;;;;;;5057303;28;20083;-69
2023/04/30 00:53:33;;;;;;;6.88;5.22;;;9.00;59.10;;;;;;5057932;28;20021;-69
2023/04/30 00:55:59;;;;;;;6.50;5.40;;;9.00;59.00;;;;;;5057351;28;20031;-69
2023/04/30 00:58:25;;;;;;;5.60;4.88;;;8.90;60.00;;;;;;5057401;28;20320;-69
2023/04/30 01:00:51;;;;;;;7.18;5.28;;;8.90;58.30;;;;;;5040777;28;20031;-69
2023/04/30 01:03:18;;;;;;;7.60;5.60;;;8.90;57.20;;;;;;5056809;28;20071;-69
2023/04/30 01:05:44;;;;;;;8.38;5.55;;;8.90;57.00;;;;;;5040490;28;20025;-69
2023/04/30 01:08:10;;;;;;;8.05;5.38;;;8.90;55.50;;;;;;5058044;28;20021;-69
2023/04/30 01:11:10;;;;;;;7.13;5.65;;;8.90;55.80;;;;;;5040379;28;20040;-69
2023/04/30 01:13:52;;;;;;;7.80;6.03;;;8.90;57.80;;;;;;5035402;28;20115;-69
2023/04/30 01:16:39;;;;;;;7.13;5.80;;;8.80;56.70;;;;;;5057638;28;20100;-69
2023/04/30 01:19:13;;;;;;;7.88;5.63;;;8.80;57.30;;;;;;5057606;28;20079;-69
2023/04/30 01:21:41;;;;;;;6.93;6.22;;;8.80;59.20;;;;;;5056225;28;20120;-69
2023/04/30 01:24:37;;;;;;;9.52;5.82;;;8.80;60.40;;;;;;5057570;28;20040;-69
2023/04/30 01:27:12;;;;;;;7.22;6.40;;;8.80;62.70;;;;;;5073731;28;20025;-69
2023/04/30 01:29:41;;;;;;;7.85;5.72;;;8.80;61.60;;;;;;5057388;28;20047;-69
2023/04/30 01:32:06;;;;;;;7.30;5.95;;;8.80;65.30;;;;;;5057398;28;20028;-70
2023/04/30 01:34:32;;;;;;;6.80;6.10;;;8.70;64.90;;;;;;5056672;28;20025;-70
2023/04/30 01:37:04;;;;;;;9.75;6.10;;;8.80;67.20;;;;;;5057412;28;20040;-70
2023/04/30 01:39:49;;;;;;;8.10;6.10;;;8.80;64.30;;;;;;5057400;28;20411;-69
2023/04/30 01:42:27;;;;;;;8.85;6.47;;;8.80;65.80;;;;;;5057369;28;20036;-70
2023/04/30 01:44:59;;;;;;;9.52;6.55;;;8.70;66.80;;;;;;5057310;28;20359;-70
2023/04/30 01:47:58;;;;;;;9.18;6.35;;;8.60;68.30;;;;;;5056536;28;20033;-69
2023/04/30 01:50:36;;;;;;;7.68;6.63;;;8.60;71.70;;;;;;5056554;28;20111;-69
2023/04/30 01:53:11;;;;;;;7.13;5.88;;;8.50;74.10;;;;;;5057115;28;20035;-69
2023/04/30 01:55:43;;;;;;;9.90;6.20;;;8.40;76.30;;;;;;5057007;28;20029;-69
2023/04/30 01:58:12;;;;;;;8.85;6.70;;;8.40;78.50;;;;;;5056142;28;20108;-69
2023/04/30 02:00:38;;;;;;;8.52;6.65;;;8.40;79.60;;;;;;5056214;28;20044;-69
2023/04/30 02:03:04;;;;;;;8.68;6.35;;;8.40;80.40;;;;;;5039386;28;20056;-69
2023/04/30 02:05:30;;;;;;;11.88;7.72;;;8.30;81.80;;;;;;5056899;28;20029;-69
2023/04/30 02:07:55;;;;;;;9.75;6.53;;;8.30;83.50;;;;;;5056787;28;20029;-69
2023/04/30 02:10:23;;;;;;;9.52;7.00;;;8.30;83.20;;;;;;5022972;28;20033;-69
2023/04/30 02:12:48;;;;;;;8.27;6.85;;;8.30;83.80;;;;;;5056750;28;20033;-69
2023/04/30 02:15:15;;;;;;;9.48;7.40;;;8.20;84.20;;;;;;5056298;28;20415;-69
2023/04/30 02:17:40;;;;;;;8.52;7.53;;;8.20;86.10;;;;;;5056110;28;20421;-69
2023/04/30 02:20:07;;;;;;;10.40;7.43;;;8.20;86.00;;;;;;5055985;28;20033;-70
2023/04/30 02:22:34;;;;;;;9.60;6.97;;;8.20;88.70;;;;;;5056049;28;20052;-70
2023/04/30 02:25:00;;;;;;;9.15;7.43;;;8.20;89.10;;;;;;5022763;28;20116;-69
2023/04/30 02:27:26;;;;;;;10.25;7.63;;;8.10;88.70;;;;;;5023009;28;20064;-69
2023/04/30 02:29:52;;;;;;;8.73;7.65;;;8.10;90.60;;;;;;5056857;28;20033;-69
2023/04/30 02:32:18;;;;;;;10.25;7.28;;;8.10;90.40;;;;;;5074524;28;20423;-69
2023/04/30 02:34:44;;;;;;;10.95;7.03;;;8.10;90.50;;;;;;5010660;28;20127;-69
2023/04/30 02:37:10;;;;;;;9.52;7.60;;;8.10;90.90;;;;;;5043429;28;20033;-69
2023/04/30 02:39:36;;;;;;;10.07;7.68;;;8.00;92.00;;;;;;5043334;28;20091;-69
2023/04/30 02:42:03;;;;;;;9.40;8.02;;;7.90;92.80;;;;;;5027019;28;20032;-69
2023/04/30 02:44:29;;;;;;;11.18;7.88;;;7.90;92.60;;;;;;5059775;28;20033;-69
2023/04/30 02:46:55;;;;;;;10.68;7.80;;;8.00;93.30;;;;;;5060409;28;20415;-69
2023/04/30 02:49:22;;;;;;;9.40;8.05;;;8.00;93.50;;;;;;5076215;28;20044;-69
2023/04/30 02:51:48;;;;;;;12.77;8.93;;;7.90;94.50;;;;;;5059602;28;20041;-68
2023/04/30 02:54:14;;;;;;;10.80;8.60;;;7.90;94.70;;;;;;5060387;28;20350;-69
2023/04/30 02:56:40;;;;;;;10.30;8.35;;;7.90;94.80;;;;;;5060415;28;20029;-69
2023/04/30 02:59:07;;;;;;;12.25;8.38;;;7.90;95.40;;;;;;5026696;28;20041;-70
2023/04/30 03:01:32;;;;;;;11.52;8.98;;;7.90;95.40;;;;;;5076082;28;20427;-69
2023/04/30 03:03:58;;;;;;;13.05;9.13;;;7.90;95.80;;;;;;5059227;28;20049;-70
2023/04/30 03:06:24;;;;;;;12.00;8.45;;;7.90;96.00;;;;;;5060054;28;20039;-69
2023/04/30 03:08:50;;;;;;;13.32;8.95;;;7.80;96.60;;;;;;5059187;28;20033;-70
2023/04/30 03:11:16;;;;;;;12.15;8.68;;;7.80;96.70;;;;;;5059152;28;20372;-70
2023/04/30 03:13:42;;;;;;;12.30;9.07;;;7.80;96.60;;;;;;5059124;28;20419;-70
2023/04/30 03:16:08;;;;;;;10.70;8.60;;;7.80;97.40;;;;;;5059833;28;20029;-70
2023/04/30 03:18:34;;;;;;;10.50;8.95;;;7.70;97.20;;;;;;5059137;28;20039;-70
2023/04/30 03:21:00;;;;;;;12.02;8.93;;;7.80;97.40;;;;;;5058972;28;20083;-69
2023/04/30 03:23:27;;;;;;;10.40;8.98;;;7.70;98.90;;;;;;5058909;28;20128;-69
2023/04/30 03:25:53;;;;;;;15.48;9.63;;;7.70;99.40;;;;;;5059043;28;20079;-70
2023/04/30 03:28:19;;;;;;;13.43;8.98;;;7.70;99.20;;;;;;5025844;28;20057;-69
2023/04/30 03:30:45;;;;;;;12.23;9.63;;;7.60;99.90;;;;;;5058990;28;20389;-70
2023/04/30 03:33:11;;;;;;;12.55;9.73;;;7.60;99.90;;;;;;5059045;28;20086;-70
2023/04/30 03:35:37;;;;;;;13.65;10.18;;;7.60;99.90;;;;;;5059106;28;20032;-69
2023/04/30 03:38:03;;;;;;;15.40;10.40;;;7.60;99.90;;;;;;5025735;28;20036;-69
2023/04/30 03:40:29;;;;;;;12.32;9.73;;;7.70;99.90;;;;;;5058811;28;20037;-69
2023/04/30 03:42:55;;;;;;;14.13;9.93;;;7.70;99.90;;;;;;5059405;28;20040;-69
2023/04/30 03:45:21;;;;;;;14.15;10.80;;;7.60;99.90;;;;;;5058106;28;20032;-69
2023/04/30 03:47:47;;;;;;;18.10;10.90;;;7.60;99.90;;;;;;5041908;28;20067;-69
2023/04/30 03:50:16;;;;;;;15.98;10.98;;;7.70;99.90;;;;;;5042041;28;20043;-69
2023/04/30 03:52:42;;;;;;;15.43;11.20;;;7.90;99.90;;;;;;5059503;28;20036;-69
2023/04/30 03:55:09;;;;;;;14.85;10.35;;;7.80;99.90;;;;;;5042097;28;20017;-69
2023/04/30 03:57:35;;;;;;;15.25;10.82;;;7.80;99.90;;;;;;5058382;28;20400;-69
2023/04/30 04:00:06;;;;;;;14.30;10.95;;;7.70;99.90;;;;;;5041674;28;20349;-68
2023/04/30 04:02:39;;;;;;;16.40;11.65;;;7.60;99.90;;;;;;5058906;28;20047;-69
2023/04/30 04:05:08;;;;;;;16.83;10.55;;;7.50;99.90;;;;;;5058816;28;20367;-69
2023/04/30 04:07:34;;;;;;;14.38;10.73;;;7.50;99.90;;;;;;5041360;28;20033;-68
2023/04/30 04:10:00;;;;;;;17.38;11.70;;;7.50;99.90;;;;;;5057795;28;20041;-69
2023/04/30 04:12:27;;;;;;;15.32;11.00;;;7.40;99.90;;;;;;5057987;28;20270;-70
2023/04/30 04:14:53;;;;;;;16.02;11.27;;;7.50;99.90;;;;;;5058021;28;20017;-69
2023/04/30 04:17:19;;;;;;;16.55;11.93;;;7.50;99.90;;;;;;5057600;28;20400;-69
2023/04/30 04:19:45;;;;;;;15.95;11.70;;;7.40;99.90;;;;;;5057860;28;20071;-69
2023/04/30 04:22:11;;;;;;;17.38;11.85;;;7.40;99.90;;;;;;5057872;28;20040;-68
2023/04/30 04:24:37;;;;;;;17.33;12.13;;;7.40;99.90;;;;;;5041316;28;20048;-69
2023/04/30 04:27:04;;;;;;;14.63;11.13;;;7.40;99.90;;;;;;5058035;28;20033;-69
2023/04/30 04:29:31;;;;;;;16.45;12.23;;;7.30;99.90;;;;;;5057884;28;20412;-69
2023/04/30 04:31:59;;;;;;;15.90;11.63;;;7.40;99.90;;;;;;5058424;28;20056;-69
2023/04/30 04:34:25;;;;;;;14.70;10.85;;;7.40;99.90;;;;;;5058078;28;20029;-69
2023/04/30 04:36:51;;;;;;;18.13;11.93;;;7.40;99.90;;;;;;5057346;28;20301;-69
2023/04/30 04:39:18;;;;;;;16.23;11.88;;;7.40;99.90;;;;;;5057449;28;20100;-69
2023/04/30 04:41:44;;;;;;;17.05;12.05;;;7.40;99.90;;;;;;5041042;28;20043;-69
2023/04/30 04:44:10;;;;;;;18.17;12.40;;;7.40;99.90;;;;;;5040763;28;20033;-69
2023/04/30 04:46:41;;;;;;;18.63;12.52;;;7.40;99.90;;;;;;5057844;28;20037;-69
2023/04/30 04:49:07;;;;;;;17.67;12.13;;;7.50;99.90;;;;;;5057365;28;20129;-69
2023/04/30 04:51:34;;;;;;;16.70;12.40;;;7.50;99.90;;;;;;5057412;28;20059;-69
2023/04/30 04:54:00;;;;;;;16.80;12.65;;;7.50;99.90;;;;;;5040803;28;20039;-69
2023/04/30 04:56:26;;;;;;;16.65;12.43;;;7.60;99.90;;;;;;5039738;28;20315;-69
2023/04/30 04:58:52;;;;;;;18.83;13.35;;;7.60;99.90;;;;;;5040652;28;20033;-69
2023/04/30 05:01:18;;;;;;;17.40;12.43;;;7.60;99.90;;;;;;5057887;28;20033;-69
2023/04/30 05:03:46;;;;;;;18.02;12.60;;;7.70;99.90;;;;;;5040569;28;20103;-69
2023/04/30 05:06:12;;;;;;;19.20;13.48;;;7.70;99.90;;;;;;5057830;28;20028;-69
2023/04/30 05:08:38;;;;;;;20.20;13.73;;;7.80;99.90;;;;;;5057048;28;20098;-69
2023/04/30 05:11:03;;;;;;;18.05;13.43;;;7.90;99.90;;;;;;5040333;28;20392;-68
2023/04/30 05:13:29;;;;;;;21.08;14.10;;;7.90;99.90;;;;;;5040550;28;20082;-69
2023/04/30 05:15:55;;;;;;;18.65;13.63;;;7.90;99.90;;;;;;5057704;28;20347;-69
2023/04/30 05:18:21;;;;;;;20.15;13.50;;;8.00;99.90;;;;;;5057698;28;20033;-69
2023/04/30 05:20:47;;;;;;;19.95;13.90;;;8.10;99.90;;;;;;5057687;28;20048;-68
2023/04/30 05:23:13;;;;;;;18.83;14.07;;;8.20;99.90;;;;;;5056859;28;20033;-68
2023/04/30 05:25:39;;;;;;;21.35;13.45;;;8.30;99.90;;;;;;5057546;28;20036;-69
2023/04/30 05:28:05;;;;;;;17.02;13.30;;;8.40;99.90;;;;;;5056776;28;20044;-68
2023/04/30 05:30:31;;;;;;;19.65;13.70;;;8.30;99.90;;;;;;5057217;28;20040;-68
2023/04/30 05:32:57;;;;;;;17.15;14.02;;;8.40;99.90;;;;;;5057206;28;20328;-69
2023/04/30 05:35:23;;;;;;;19.70;14.07;;;8.40;99.90;;;;;;5057290;28;20031;-69
2023/04/30 05:37:49;;;;;;;21.42;13.68;;;8.70;99.90;;;;;;5073127;28;20025;-68
2023/04/30 05:40:15;;;;;;;18.98;13.73;;;8.70;99.90;;;;;;5039911;28;20039;-69
2023/04/30 05:42:44;;;;;;;21.15;14.65;;;8.80;99.90;;;;;;5056526;28;20041;-68
2023/04/30 05:45:13;;;;;;;19.17;13.45;;;9.00;99.90;;;;;;5056404;28;20150;-68
2023/04/30 05:47:39;;;;;;;18.27;13.75;;;9.00;99.90;;;;;;5057244;28;20032;-68
2023/04/30 05:50:06;;;;;;;23.60;15.05;;;9.00;99.90;;;;;;5056939;28;20040;-68
2023/04/30 05:52:32;;;;;;;21.85;14.45;;;9.00;99.90;;;;;;5057405;28;20032;-68
2023/04/30 05:54:58;;;;;;;22.58;14.80;;;9.00;99.90;;;;;;5056290;28;20104;-69
2023/04/30 05:57:24;;;;;;;20.48;14.10;;;9.10;99.90;;;;;;5056365;28;20037;-68
2023/04/30 05:59:50;;;;;;;20.00;15.27;;;9.00;99.90;;;;;;5056237;28;20052;-68
2023/04/30 06:02:16;;;;;;;21.38;15.35;;;9.20;99.90;;;;;;5056869;28;20104;-68
2023/04/30 06:04:42;;;;;;;21.17;15.00;;;9.20;99.90;;;;;;5056692;28;20057;-68
2023/04/30 06:07:08;;;;;;;18.63;14.07;;;9.30;99.90;;;;;;5039311;28;20036;-68
2023/04/30 06:09:33;;;;;;;19.80;15.02;;;9.30;99.90;;;;;;5057089;28;20312;-69
2023/04/30 06:12:01;;;;;;;18.13;14.45;;;9.40;99.90;;;;;;5056759;28;20099;-69
2023/04/30 06:14:27;;;;;;;17.90;14.88;;;9.50;99.90;;;;;;5056388;28;20024;-69
2023/04/30 06:16:53;;;;;;;20.17;14.75;;;9.60;99.90;;;;;;5056609;28;20107;-68
2023/04/30 06:19:19;;;;;;;20.60;15.27;;;9.70;99.90;;;;;;5056849;28;20118;-70
2023/04/30 06:21:45;;;;;;;19.75;14.82;;;9.90;99.90;;;;;;5056068;28;20095;-70
2023/04/30 06:24:11;;;;;;;19.10;14.95;;;10.00;99.90;;;;;;5056692;28;20319;-69
2023/04/30 06:26:37;;;;;;;20.52;14.98;;;9.90;99.40;;;;;;5056743;28;20112;-69
2023/04/30 06:29:03;;;;;;;18.52;14.50;;;10.10;99.20;;;;;;5022904;28;20041;-69
2023/04/30 06:31:29;;;;;;;18.90;14.38;;;10.20;98.80;;;;;;5055819;28;20040;-69
2023/04/30 06:33:55;;;;;;;20.98;14.95;;;10.30;96.50;;;;;;5055786;28;20021;-69
2023/04/30 06:36:21;;;;;;;19.73;14.55;;;10.40;96.10;;;;;;5055801;28;20040;-69
2023/04/30 06:38:47;;;;;;;17.83;13.57;;;10.40;95.50;;;;;;5055727;28;20021;-69
2023/04/30 06:41:15;;;;;;;17.58;13.85;;;10.50;95.00;;;;;;5055770;28;20048;-67
2023/04/30 06:43:41;;;;;;;19.08;14.52;;;10.60;93.30;;;;;;5056362;28;20040;-69
2023/04/30 06:46:07;;;;;;;20.52;14.27;;;10.60;92.00;;;;;;5056485;28;20013;-70
2023/04/30 06:48:33;;;;;;;18.80;13.90;;;10.60;92.30;;;;;;5055394;28;20043;-69
2023/04/30 06:50:59;;;;;;;19.35;13.55;;;10.50;93.90;;;;;;5055284;28;20037;-68
2023/04/30 06:53:25;;;;;;;16.80;13.23;;;10.70;92.60;;;;;;5022448;28;20407;-68
2023/04/30 06:55:51;;;;;;;17.45;13.27;;;10.80;91.50;;;;;;5055511;28;20029;-68
2023/04/30 06:58:20;;;;;;;16.63;12.70;;;10.90;90.70;;;;;;5056269;28;20029;-70
2023/04/30 07:00:46;;;;;;;16.60;13.10;;;11.00;90.50;;;;;;5056207;28;20087;-69
2023/04/30 07:03:11;;;;;;;17.13;13.05;;;11.00;91.40;;;;;;5056197;28;20414;-69
2023/04/30 07:05:37;;;;;;;18.15;13.65;;;11.20;88.40;;;;;;5022677;28;20033;-68
2023/04/30 07:08:04;;;;;;;15.88;12.90;;;11.30;82.10;;;;;;5038943;28;20044;-71
2023/04/30 07:10:30;;;;;;;17.55;12.20;;;11.40;79.70;;;;;;5038887;28;20045;-68
2023/04/30 07:12:56;;;;;;;15.20;12.55;;;11.50;78.80;;;;;;5055188;28;20033;-69
2023/04/30 07:15:22;;;;;;;17.42;12.70;;;11.60;81.10;;;;;;5055424;28;20094;-71
2023/04/30 07:17:48;;;;;;;18.67;12.90;;;11.70;76.00;;;;;;5038665;28;20033;-69
2023/04/30 07:20:14;;;;;;;18.02;13.13;;;11.70;74.40;;;;;;5058168;28;20040;-68
2023/04/30 07:22:43;;;;;;;14.02;11.25;;;11.80;70.30;;;;;;5058678;28;20043;-69
2023/04/30 07:25:10;;;;;;;16.70;12.60;;;11.90;68.10;;;;;;5075335;28;20033;-70
2023/04/30 07:27:36;;;;;;;14.82;12.23;;;12.20;58.70;;;;;;5042053;28;20029;-69
2023/04/30 07:30:03;;;;;;;17.00;12.38;;;12.20;54.00;;;;;;5058475;28;20036;-69
2023/04/30 07:32:29;;;;;;;15.63;12.63;;;12.40;50.60;;;;;;5059419;28;20025;-70
2023/04/30 07:34:55;;;;;;;15.07;12.05;;;12.50;52.50;;;;;;5058510;28;20182;-71
2023/04/30 07:37:21;;;;;;;15.80;12.68;;;12.60;54.20;;;;;;5025544;28;20074;-70
2023/04/30 07:39:47;;;;;;;16.63;11.90;;;12.80;46.70;;;;;;5025969;28;20036;-69
2023/04/30 07:42:12;;;;;;;16.33;12.20;;;12.80;48.20;;;;;;5059243;28;20385;-69
2023/04/30 07:44:38;;;;;;;14.25;11.93;;;12.90;41.80;;;;;;5059048;28;20396;-69
2023/04/30 07:47:04;;;;;;;17.02;12.55;;;13.10;39.00;;;;;;5041593;28;20120;-69
2023/04/30 07:49:30;;;;;;;14.25;11.65;;;13.20;30.30;;;;;;5025690;28;20037;-69
2023/04/30 07:51:56;;;;;;;13.93;11.77;;;13.30;34.60;;;;;;5058881;28;20083;-69
2023/04/30 07:54:22;;;;;;;15.20;13.05;;;13.30;36.20;;;;;;5041741;28;20506;-70
2023/04/30 07:56:48;;;;;;;17.38;12.18;;;13.00;32.80;;;;;;5058353;28;20033;-69
2023/04/30 07:59:14;;;;;;;21.02;12.25;;;13.00;42.20;;;;;;5058182;28;20033;-70
2023/04/30 08:01:40;;;;;;;16.88;12.30;;;13.20;40.30;;;;;;5074861;28;20079;-69
2023/04/30 08:04:06;;;;;;;14.57;11.57;;;13.40;27.60;;;;;;5057838;28;20048;-69
2023/04/30 08:06:32;;;;;;;15.40;12.13;;;13.60;17.50;;;;;;5057946;28;20092;-69
2023/04/30 08:08:58;;;;;;;15.68;12.05;;;13.80;15.00;;;;;;5057797;28;20028;-69
2023/04/30 08:11:24;;;;;;;14.40;11.85;;;13.80;17.30;;;;;;5058002;28;20083;-68
2023/04/30 08:13:49;;;;;;;14.98;12.63;;;13.90;13.00;;;;;;5058658;28;20017;-69
2023/04/30 08:16:15;;;;;;;14.13;12.23;;;13.80;9.30;;;;;;5057877;28;20117;-69
2023/04/30 08:18:43;;;;;;;15.50;12.18;;;13.90;1.20;;;;;;5057796;28;20025;-68
2023/04/30 08:21:11;;;;;;;17.65;12.10;;;14.10;1.00;;;;;;5008969;28;20029;-68
2023/04/30 08:23:37;;;;;;;16.45;11.95;;;14.30;1.00;;;;;;5057872;28;20037;-69
2023/04/30 08:26:02;;;;;;;16.15;12.20;;;14.30;1.00;;;;;;5058495;28;20109;-69
2023/04/30 08:28:28;;;;;;;14.82;11.82;;;14.40;1.00;;;;;;5058425;28;20037;-75
2023/04/30 08:30:54;;;;;;;16.90;12.00;;;14.40;1.00;;;;;;5058523;28;20047;-70
2023/04/30 08:33:20;;;;;;;15.90;12.10;;;14.30;1.00;;;;;;5074110;28;20021;-67
2023/04/30 08:35:46;;;;;;;16.35;11.75;;;14.30;1.00;;;;;;5057463;28;20037;-67
2023/04/30 08:38:12;;;;;;;15.70;11.70;;;14.50;1.00;;;;;;5058257;28;20091;-69
2023/04/30 08:40:39;;;;;;;13.80;11.93;;;14.80;1.00;;;;;;5057331;28;20064;-68
2023/04/30 08:43:06;;;;;;;16.40;11.43;;;14.90;1.00;;;;;;5040704;28;20375;-67
2023/04/30 08:45:35;;;;;;;14.32;11.13;;;15.00;1.00;;;;;;5073816;28;20280;-67
2023/04/30 08:48:03;;;;;;;15.00;10.88;;;15.00;1.00;;;;;;5040480;28;20032;-68
2023/04/30 08:50:30;;;;;;;14.07;11.57;;;15.00;1.00;;;;;;5058269;28;20381;-66
2023/04/30 08:52:58;;;;;;;14.13;11.10;;;15.00;1.00;;;;;;5057654;28;20020;-67
2023/04/30 08:55:26;;;;;;;16.33;11.32;;;15.10;1.00;;;;;;5057285;28;20025;-69
2023/04/30 08:57:51;;;;;;;15.50;10.68;;;15.40;1.00;;;;;;5040420;28;20396;-68
2023/04/30 09:00:17;;;;;;;13.20;9.40;;;15.70;1.00;;;;;;5040195;28;20029;-66
2023/04/30 09:02:45;;;;;;;13.88;10.02;;;15.50;1.00;;;;;;5056606;28;20305;-66
2023/04/30 09:05:13;;;;;;;10.55;9.23;;;15.50;1.00;;;;;;5056597;28;20059;-67
2023/04/30 09:07:48;;;;;;;13.38;9.10;;;15.50;1.00;;;;;;5040051;28;20319;-67
2023/04/30 09:10:16;;;;;;;9.80;8.75;;;15.60;1.00;;;;;;5057386;28;20029;-67
2023/04/30 09:12:44;;;;;;;10.15;8.43;;;15.70;1.00;;;;;;5040075;28;20033;-67
2023/04/30 09:15:11;;;;;;;12.48;8.75;;;15.60;1.00;;;;;;5056530;28;20040;-67
2023/04/30 09:17:38;;;;;;;9.93;8.10;;;15.70;1.00;;;;;;5039521;28;20185;-68
2023/04/30 09:20:08;;;;;;;10.90;8.57;;;15.80;1.00;;;;;;5056768;28;20033;-70
2023/04/30 09:22:35;;;;;;;10.63;8.73;;;16.10;1.00;;;;;;5055974;28;20242;-68
2023/04/30 09:25:01;;;;;;;10.43;7.82;;;16.20;1.00;;;;;;5056375;28;20029;-68
2023/04/30 09:27:27;;;;;;;11.45;7.93;;;16.30;1.00;;;;;;5057085;28;20040;-67
2023/04/30 09:29:53;;;;;;;11.25;8.23;;;16.50;1.00;;;;;;5039326;28;20029;-68
2023/04/30 09:32:19;;;;;;;11.10;8.20;;;16.60;1.00;;;;;;5056209;28;20109;-68
2023/04/30 09:34:45;;;;;;;10.20;8.30;;;16.60;1.00;;;;;;5056296;28;20036;-67
2023/04/30 09:37:11;;;;;;;10.40;7.50;;;16.50;1.00;;;;;;5056323;28;20029;-67
2023/04/30 09:39:52;;;;;;;15.32;9.30;;;16.60;1.00;;;;;;5056758;28;20055;-66
2023/04/30 09:42:19;;;;;;;10.10;8.15;;;16.70;1.00;;;;;;5055509;28;20127;-66
2023/04/30 09:44:45;;;;;;;9.30;7.65;;;16.50;1.00;;;;;;5055977;28;20033;-67
2023/04/30 09:47:16;;;;;;;9.93;7.43;;;16.50;1.00;;;;;;5056852;28;20068;-69
2023/04/30 09:49:46;;;;;;;9.18;7.20;;;16.50;1.00;;;;;;5056573;28;20024;-67
2023/04/30 09:52:14;;;;;;;9.45;7.00;;;16.30;1.00;;;;;;5056753;28;20391;-68
2023/04/30 09:54:42;;;;;;;7.70;6.90;;;16.40;1.00;;;;;;5055950;28;20021;-67
2023/04/30 09:57:10;;;;;;;12.55;7.00;;;16.40;1.00;;;;;;5039165;28;20048;-67
2023/04/30 09:59:38;;;;;;;6.75;6.05;;;16.70;1.00;;;;;;5073043;28;20376;-66
2023/04/30 10:02:08;;;;;;;8.23;6.90;;;16.70;1.00;;;;;;5039540;28;20028;-67
2023/04/30 10:04:36;;;;;;;5.63;5.07;;;16.70;1.00;;;;;;5039113;28;20514;-64
2023/04/30 10:07:24;;;;;;;7.15;5.40;;;16.60;1.00;;;;;;5055763;28;20083;-66
2023/04/30 10:10:06;;;;;;;5.80;4.70;;;16.80;1.00;;;;;;5055873;28;20041;-68
2023/04/30 10:12:51;;;;;;;5.75;5.07;;;17.00;1.00;;;;;;5055789;28;20029;-68
2023/04/30 10:15:23;;;;;;;6.25;4.45;;;17.10;99.90;;;;;;5055543;28;20090;-67
2023/04/30 10:17:53;;;;;;;;;;;17.40;99.90;;;;;;5056943;28;20112;-67
2023/04/30 10:20:22;;;;;;;5.38;3.78;;;17.70;1.00;;;;;;5056239;28;19909;-67
2023/04/30 10:22:48;;;;;;;4.80;4.40;;;17.80;1.00;;;;;;5056098;28;20101;-67
2023/04/30 10:25:15;;;;;;;6.93;4.70;;;18.00;1.00;;;;;;5039054;28;20049;-67
2023/04/30 10:27:41;;;;;;;4.72;4.13;;;18.10;1.00;;;;;;5055446;28;20090;-68
2023/04/30 10:30:09;;;;;;;8.85;4.60;;;18.40;1.00;;;;;;5055316;28;20029;-66
2023/04/30 10:32:45;;;;;;;4.20;3.80;;;18.50;99.90;;;;;;5056056;28;20048;-67
2023/04/30 10:35:18;;;;;;;4.38;3.45;;;18.40;99.90;;;;;;5055897;28;20033;-65
2023/04/30 10:38:02;;;;;;;6.00;4.00;;;18.20;1.00;;;;;;5056350;28;20044;-67
2023/04/30 10:40:28;;;;;;;4.93;3.70;;;18.30;1.00;;;;;;5055663;28;20257;-66
2023/04/30 10:42:54;;;;;;;2.28;2.05;;;18.30;30.70;;;;;;5038974;28;20039;-66
2023/04/30 10:45:37;;;;;;;2.92;2.05;;;18.60;1.00;;;;;;5055680;28;20339;-66
2023/04/30 10:48:06;;;;;;;2.70;2.15;;;18.80;1.00;;;;;;5072044;28;20091;-66
2023/04/30 10:50:38;;;;;;;2.92;1.80;;;19.20;1.00;;;;;;5055211;28;20068;-68
2023/04/30 10:53:06;;;;;;;3.07;2.00;;;19.60;99.90;;;;;;5055333;28;20269;-66
2023/04/30 10:55:32;;;;;;;3.67;1.90;;;20.70;1.00;;;;;;5059017;28;20059;-67
2023/04/30 10:57:58;;;;;;;3.22;1.20;;;22.30;99.90;;;;;;5060024;28;20104;-67
2023/04/30 11:00:28;;;;;;;3.22;1.58;;;21.90;1.00;;;;;;5058998;28;20041;-67
2023/04/30 11:03:02;;;;;;;2.92;1.60;;;22.10;99.90;;;;;;5058485;28;20036;-67
2023/04/30 11:05:38;;;;;;;3.05;1.60;;;22.10;99.90;;;;;;5058719;28;20373;-66
2023/04/30 11:08:10;;;;;;;2.15;1.70;;;23.40;99.90;;;;;;5059943;28;20032;-67
2023/04/30 11:10:35;;;;;;;1.90;1.70;;;24.00;99.90;;;;;;5058533;28;20029;-67
2023/04/30 11:13:06;;;;;;;1.42;1.20;;;23.80;72.40;;;;;;5058743;28;20033;-66
2023/04/30 11:15:44;;;;;;;3.33;1.60;;;24.20;1.00;;;;;;5060127;28;20040;-68
2023/04/30 11:18:12;;;;;;;2.67;1.42;;;24.00;1.00;;;;;;5059588;28;20022;-67
2023/04/30 11:20:42;;;;;;;2.30;1.58;;;24.40;1.00;;;;;;5058934;28;20041;-66
2023/04/30 11:23:13;;;;;;;1.75;1.25;;;24.70;1.00;;;;;;5059933;28;20040;-66
2023/04/30 11:25:43;;;;;;;2.13;1.30;;;25.10;1.00;;;;;;5059309;28;20025;-67
2023/04/30 11:28:22;;;;;;;1.83;1.55;;;25.20;1.00;;;;;;5041591;28;20033;-66
2023/04/30 11:30:55;;;;;;;2.20;1.52;;;23.80;1.00;;;;;;5058359;28;20055;-66
2023/04/30 11:33:25;;;;;;;1.70;1.40;;;24.40;1.00;;;;;;5058807;28;20094;-66
2023/04/30 11:35:52;;;;;;;1.98;1.45;;;25.00;1.00;;;;;;5059239;28;20068;-68
2023/04/30 11:38:36;;;;;;;2.70;1.30;;;25.70;1.00;;;;;;5059175;28;20100;-67
2023/04/30 11:41:03;;;;;;;2.35;1.30;;;26.00;1.00;;;;;;5025427;28;20412;-70
2023/04/30 11:43:33;;;;;;;1.58;1.33;;;25.20;1.00;;;;;;5041951;28;20029;-66
2023/04/30 11:46:14;;;;;;;2.33;1.30;;;25.00;1.00;;;;;;5058150;28;20112;-66
2023/04/30 11:48:42;;;;;;;1.27;1.05;;;26.50;1.00;;;;;;5074891;28;20163;-66
2023/04/30 11:51:17;;;;;;;1.10;0.90;;;28.00;1.00;;;;;;5057634;28;20052;-68
2023/04/30 11:53:45;;;;;;;1.77;1.33;;;28.60;99.90;;;;;;5058122;28;20053;-67
2023/04/30 11:56:11;;;;;;;1.70;1.30;;;28.90;99.90;;;;;;5058740;28;20087;-67
2023/04/30 11:58:38;;;;;;;1.48;1.38;;;27.80;99.90;;;;;;5074774;28;20400;-67
2023/04/30 12:01:09;;;;;;;1.58;1.30;;;28.50;99.90;;;;;;5057992;28;20064;-67
2023/04/30 12:03:46;;;;;;;0.98;0.98;;;28.80;99.90;;;;;;5058767;28;20053;-66
2023/04/30 12:06:23;;;;;;;1.17;0.95;;;28.00;99.90;;;;;;5058266;28;20029;-66
2023/04/30 12:08:51;;;;;;;1.10;1.00;;;28.20;99.90;;;;;;5041368;28;20152;-66
2023/04/30 12:11:28;;;;;;;2.45;1.20;;;28.20;99.90;;;;;;5041301;28;20040;-66
2023/04/30 12:13:55;;;;;;;1.52;1.20;;;28.30;99.90;;;;;;5058611;28;20025;-68
2023/04/30 12:16:24;;;;;;;1.35;1.20;;;28.70;99.90;;;;;;5058669;28;20288;-66
2023/04/30 12:18:50;;;;;;;1.77;1.60;;;27.30;99.90;;;;;;5074469;28;20025;-66
2023/04/30 12:21:17;;;;;;;1.77;1.40;;;26.50;99.90;;;;;;5058439;28;20040;-65
2023/04/30 12:23:44;;;;;;;2.45;1.50;;;27.60;99.90;;;;;;5057611;28;20029;-66
2023/04/30 12:26:10;;;;;;;1.95;1.38;;;27.10;99.90;;;;;;5057729;28;20084;-66
2023/04/30 12:28:36;;;;;;;2.42;1.50;;;27.70;99.90;;;;;;5057846;28;20028;-66
2023/04/30 12:31:03;;;;;;;1.20;1.10;;;27.50;99.90;;;;;;5057579;28;20297;-65
2023/04/30 12:33:30;;;;;;;1.40;1.20;;;27.40;99.90;;;;;;5058462;28;20017;-66
2023/04/30 12:35:58;;;;;;;2.60;1.65;;;27.60;99.90;;;;;;5074211;28;20028;-66
2023/04/30 12:38:24;;;;;;;2.13;1.27;;;29.10;99.90;;;;;;5057856;28;20059;-66
2023/04/30 12:40:50;;;;;;;1.83;1.02;;;29.60;99.90;;;;;;5040977;28;20068;-66
2023/04/30 12:43:17;;;;;;;1.83;1.23;;;30.60;99.90;;;;;;5057436;28;20033;-66
2023/04/30 12:45:45;;;;;;;1.13;1.02;;;30.80;99.90;;;;;;5058627;28;20262;-66
2023/04/30 12:48:12;;;;;;;1.30;1.20;;;30.30;99.90;;;;;;5040669;28;20300;-67